createdAt,value
2022-07-29T00:01:51.392Z,101000.53
2022-07-29T00:04:21.457Z,100989.88
2022-07-29T00:09:22.063Z,101000.97
2022-07-29T00:11:50.597Z,101004.06
2022-07-29T00:14:25.608Z,101006.59
2022-07-29T00:16:57.691Z,100990.22
2022-07-29T00:19:25.558Z,101008.19
2022-07-29T00:21:59.072Z,101001.25
2022-07-29T00:24:27.394Z,101005.59
2022-07-29T00:26:55.197Z,101013.38
2022-07-29T00:29:38.398Z,101009.88
2022-07-29T00:32:07.677Z,101022.22
2022-07-29T00:34:36.741Z,101023.16
2022-07-29T00:37:09.868Z,101018.84
2022-07-29T00:42:09.387Z,101025.22
2022-07-29T00:44:40.953Z,101028.28
2022-07-29T00:47:11.939Z,101028.69
2022-07-29T00:49:42.937Z,101027.72
2022-07-29T00:52:17.045Z,101027.03
2022-07-29T00:54:45.635Z,101027.38
2022-07-29T00:57:17.008Z,101023.41
2022-07-29T00:59:51.776Z,101026.03
2022-07-29T01:02:23.393Z,101021.09
2022-07-29T01:04:54.785Z,101017.00
2022-07-29T01:10:00.265Z,101027.25
2022-07-29T01:12:36.884Z,101012.25
2022-07-29T01:15:09.619Z,101017.56
2022-07-29T01:17:52.486Z,101012.88
2022-07-29T01:23:29.118Z,101015.41
2022-07-29T01:26:14.818Z,101001.72
2022-07-29T01:29:07.604Z,101009.69
2022-07-29T01:31:58.508Z,101008.91
2022-07-29T01:34:31.858Z,101001.09
2022-07-29T01:37:08.083Z,101006.28
2022-07-29T01:39:45.787Z,101010.03
2022-07-29T01:42:25.968Z,101006.13
2022-07-29T01:47:41.997Z,101014.91
2022-07-29T01:50:12.055Z,101014.75
2022-07-29T01:52:46.765Z,101015.25
2022-07-29T01:55:18.020Z,101013.44
2022-07-29T01:57:49.284Z,101012.31
2022-07-29T02:00:23.941Z,101002.72
2022-07-29T02:02:57.239Z,101013.63
2022-07-29T02:05:26.142Z,101002.06
2022-07-29T02:07:55.748Z,101005.59
2022-07-29T02:10:28.358Z,101009.53
2022-07-29T02:13:00.245Z,101005.09
2022-07-29T02:15:33.962Z,101005.06
2022-07-29T02:18:06.414Z,101006.22
2022-07-29T02:20:38.988Z,101006.81
2022-07-29T02:23:09.224Z,101009.00
2022-07-29T02:30:49.045Z,101014.28
2022-07-29T02:33:18.900Z,101003.22
2022-07-29T02:38:38.735Z,101002.16
2022-07-29T02:41:12.045Z,101002.06
2022-07-29T02:43:42.755Z,100993.59
2022-07-29T02:46:29.516Z,100993.53
2022-07-29T02:49:06.313Z,100986.66
2022-07-29T02:51:45.872Z,100992.09
2022-07-29T02:54:17.307Z,100986.44
2022-07-29T02:56:49.607Z,100988.66
2022-07-29T02:59:21.032Z,100981.94
2022-07-29T03:01:49.961Z,100973.94
2022-07-29T03:06:56.576Z,100991.06
2022-07-29T03:09:29.704Z,100992.50
2022-07-29T03:11:59.244Z,100996.56
2022-07-29T03:14:30.087Z,100979.47
2022-07-29T03:17:01.181Z,101001.97
2022-07-29T03:21:58.675Z,100994.09
2022-07-29T03:24:29.882Z,101002.09
2022-07-29T03:26:59.072Z,100993.59
2022-07-29T03:29:33.884Z,100997.25
2022-07-29T03:32:08.573Z,100998.25
2022-07-29T03:34:39.830Z,101002.06
2022-07-29T03:37:11.191Z,101011.53
2022-07-29T03:39:43.347Z,101004.25
2022-07-29T03:42:15.262Z,101017.19
2022-07-29T03:44:47.991Z,101013.78
2022-07-29T03:47:17.223Z,101009.81
2022-07-29T03:49:50.216Z,101011.38
2022-07-29T03:57:35.157Z,101007.84
2022-07-29T04:00:08.029Z,101005.31
2022-07-29T04:02:37.331Z,101006.56
2022-07-29T04:05:05.936Z,101007.50
2022-07-29T04:07:33.978Z,101014.09
2022-07-29T04:12:43.719Z,101013.34
2022-07-29T04:15:14.468Z,101010.53
2022-07-29T04:17:44.957Z,101020.38
2022-07-29T04:20:16.385Z,101010.53
2022-07-29T04:22:44.243Z,101018.47
2022-07-29T04:25:15.216Z,101011.03
2022-07-29T04:30:32.258Z,101020.03
2022-07-29T04:33:02.172Z,101022.00
2022-07-29T04:35:38.413Z,101034.28
2022-07-29T04:38:15.919Z,101034.91
2022-07-29T04:40:45.127Z,101037.56
2022-07-29T04:43:15.987Z,101033.56
2022-07-29T04:45:45.903Z,101033.47
2022-07-29T04:48:14.476Z,101034.50
2022-07-29T04:50:44.028Z,101029.41
2022-07-29T04:53:12.874Z,101022.31
2022-07-29T04:55:45.967Z,101018.03
2022-07-29T04:58:13.819Z,101036.34
2022-07-29T05:00:42.663Z,101027.72
2022-07-29T05:03:18.249Z,101024.69
2022-07-29T05:05:52.986Z,101026.50
2022-07-29T05:08:21.660Z,101045.41
2022-07-29T05:10:49.594Z,101041.53
2022-07-29T05:13:17.714Z,101037.47
2022-07-29T05:15:45.869Z,101032.13
2022-07-29T05:18:15.706Z,101035.38
2022-07-29T05:20:44.240Z,101039.44
2022-07-29T05:23:14.194Z,101027.19
2022-07-29T05:25:45.214Z,101026.03
2022-07-29T05:28:13.609Z,101039.66
2022-07-29T05:30:41.554Z,101035.38
2022-07-29T05:33:34.737Z,101041.78
2022-07-29T05:36:03.626Z,101026.13
2022-07-29T05:38:33.812Z,101034.47
2022-07-29T05:41:05.039Z,101036.53
2022-07-29T05:43:36.153Z,101025.53
2022-07-29T05:46:04.641Z,101035.66
2022-07-29T05:48:32.596Z,101034.31
2022-07-29T05:51:00.292Z,101035.59
2022-07-29T05:53:33.172Z,101036.94
2022-07-29T05:56:04.738Z,101031.22
2022-07-29T05:58:33.784Z,101035.41
2022-07-29T06:01:05.224Z,101027.31
2022-07-29T06:03:34.369Z,101026.44
2022-07-29T06:06:02.128Z,101028.47
2022-07-29T06:08:35.001Z,101032.22
2022-07-29T06:13:33.655Z,101038.13
2022-07-29T06:16:04.414Z,101040.78
2022-07-29T06:18:32.801Z,101034.44
2022-07-29T06:21:01.191Z,101037.66
2022-07-29T06:23:29.007Z,101039.19
2022-07-29T06:26:00.284Z,101037.19
2022-07-29T06:28:29.555Z,101042.44
2022-07-29T06:30:57.948Z,101035.47
2022-07-29T06:33:27.221Z,101030.28
2022-07-29T06:35:55.957Z,101035.53
2022-07-29T06:38:30.703Z,101029.34
2022-07-29T06:46:07.622Z,101031.25
2022-07-29T06:48:37.504Z,101034.25
2022-07-29T06:51:09.995Z,101033.75
2022-07-29T06:54:00.462Z,101040.75
2022-07-29T06:56:29.583Z,101033.56
2022-07-29T06:58:59.901Z,101030.19
2022-07-29T07:01:29.553Z,101014.88
2022-07-29T07:04:01.382Z,101024.03
2022-07-29T07:09:04.082Z,101027.34
2022-07-29T07:11:36.449Z,101021.41
2022-07-29T07:14:05.874Z,101021.66
2022-07-29T07:16:34.424Z,101028.94
2022-07-29T07:19:05.605Z,101021.66
2022-07-29T07:21:34.472Z,101025.97
2022-07-29T07:24:04.899Z,101023.47
2022-07-29T07:26:32.815Z,101027.56
2022-07-29T07:29:01.697Z,101021.38
2022-07-29T07:31:32.389Z,101026.63
2022-07-29T07:34:00.610Z,101026.91
2022-07-29T07:36:29.058Z,101018.50
2022-07-29T07:38:57.503Z,101017.91
2022-07-29T07:41:26.526Z,101013.69
2022-07-29T07:44:00.782Z,101021.81
2022-07-29T07:46:28.877Z,101022.41
2022-07-29T07:48:58.665Z,101030.19
2022-07-29T07:51:28.288Z,101026.06
2022-07-29T07:53:59.365Z,101023.44
2022-07-29T07:56:30.726Z,101022.84
2022-07-29T07:59:02.742Z,101026.06
2022-07-29T08:01:31.065Z,101028.34
2022-07-29T08:04:27.106Z,101023.91
2022-07-29T08:06:59.581Z,101024.00
2022-07-29T08:09:30.404Z,101024.19
2022-07-29T08:12:07.083Z,101022.47
2022-07-29T08:14:38.588Z,101019.31
2022-07-29T08:17:06.876Z,101030.50
2022-07-29T08:19:37.898Z,101029.97
2022-07-29T08:22:05.725Z,101028.34
2022-07-29T08:24:48.613Z,101028.81
2022-07-29T08:27:41.743Z,101024.47
2022-07-29T08:30:07.171Z,101019.09
2022-07-29T08:35:30.970Z,101010.19
2022-07-29T08:38:05.982Z,101000.72
2022-07-29T08:40:33.962Z,101009.06
2022-07-29T08:43:07.252Z,101017.31
2022-07-29T08:45:42.536Z,101009.22
2022-07-29T08:48:16.880Z,101010.47
2022-07-29T08:50:51.685Z,101005.66
2022-07-29T08:53:21.141Z,101010.38
2022-07-29T08:55:51.063Z,100999.47
2022-07-29T08:58:22.970Z,101000.28
2022-07-29T09:00:52.542Z,101007.53
2022-07-29T09:03:24.120Z,101011.03
2022-07-29T09:05:54.670Z,101004.41
2022-07-29T09:08:22.899Z,101001.44
2022-07-29T09:10:52.192Z,100991.75
2022-07-29T09:13:20.684Z,100999.00
2022-07-29T09:15:48.710Z,101000.13
2022-07-29T09:18:38.134Z,101000.22
2022-07-29T09:21:27.734Z,100995.91
2022-07-29T09:24:15.863Z,101006.06
2022-07-29T09:26:47.981Z,101000.41
2022-07-29T09:29:17.529Z,100996.38
2022-07-29T09:31:46.538Z,100998.00
2022-07-29T09:34:17.123Z,101002.81
2022-07-29T09:36:46.670Z,101004.88
2022-07-29T09:39:17.771Z,101004.78
2022-07-29T09:41:48.237Z,100998.66
2022-07-29T09:44:16.443Z,101001.88
2022-07-29T09:46:57.191Z,101007.34
2022-07-29T09:49:26.337Z,100993.28
2022-07-29T09:52:07.217Z,100992.84
2022-07-29T09:54:38.890Z,100987.25
2022-07-29T09:57:25.235Z,100985.28
2022-07-29T09:59:59.567Z,100982.34
2022-07-29T10:02:31.970Z,100978.78
2022-07-29T10:05:02.346Z,100981.75
2022-07-29T10:07:53.515Z,100966.78
2022-07-29T10:10:28.305Z,100979.59
2022-07-29T10:12:59.742Z,100970.47
2022-07-29T10:15:33.200Z,100976.06
2022-07-29T10:20:30.012Z,100973.69
2022-07-29T10:23:00.904Z,100968.59
2022-07-29T10:25:31.025Z,100967.41
2022-07-29T10:28:02.797Z,100967.13
2022-07-29T10:30:31.211Z,100964.88
2022-07-29T10:33:18.583Z,100960.13
2022-07-29T10:36:03.235Z,100959.34
2022-07-29T10:38:50.815Z,100954.94
2022-07-29T10:41:44.273Z,100949.44
2022-07-29T10:44:23.198Z,100953.69
2022-07-29T10:46:55.118Z,100942.47
2022-07-29T10:52:05.969Z,100949.06
2022-07-29T10:54:55.116Z,100946.34
2022-07-29T10:57:53.692Z,100941.72
2022-07-29T11:00:33.658Z,100942.38
2022-07-29T11:03:10.518Z,100926.28
2022-07-29T11:05:59.945Z,100941.09
2022-07-29T11:08:29.114Z,100931.06
2022-07-29T11:11:38.593Z,100940.09
2022-07-29T11:14:10.307Z,100944.78
2022-07-29T11:17:16.320Z,100938.81
2022-07-29T11:19:51.940Z,100930.88
2022-07-29T11:22:34.598Z,100934.50
2022-07-29T11:27:47.030Z,100941.09
2022-07-29T11:30:16.685Z,100934.03
2022-07-29T11:32:50.355Z,100920.41
2022-07-29T11:35:38.452Z,100922.72
2022-07-29T11:38:32.280Z,100916.97
2022-07-29T11:41:25.979Z,100920.31
2022-07-29T11:43:56.325Z,100910.06
2022-07-29T11:46:50.250Z,100925.47
2022-07-29T11:49:31.992Z,100922.09
2022-07-29T11:52:13.094Z,100918.22
2022-07-29T11:54:58.064Z,100924.78
2022-07-29T11:57:37.191Z,100916.78
2022-07-29T12:00:14.421Z,100910.72
2022-07-29T12:02:48.446Z,100911.47
2022-07-29T12:05:35.997Z,100922.84
2022-07-29T12:08:18.757Z,100917.28
2022-07-29T12:10:52.501Z,100901.50
2022-07-29T12:13:37.841Z,100897.97
2022-07-29T12:16:07.484Z,100909.44
2022-07-29T12:18:38.445Z,100904.56
2022-07-29T12:21:09.648Z,100892.53
2022-07-29T12:23:54.947Z,100904.22
2022-07-29T12:26:26.604Z,100901.03
2022-07-29T12:28:56.710Z,100902.19
2022-07-29T12:31:42.451Z,100896.41
2022-07-29T12:34:14.702Z,100887.63
2022-07-29T12:36:46.363Z,100885.06
2022-07-29T12:39:17.030Z,100872.75
2022-07-29T12:41:47.390Z,100888.75
2022-07-29T12:44:18.038Z,100884.91
2022-07-29T12:46:49.032Z,100882.50
2022-07-29T12:49:20.515Z,100874.69
2022-07-29T12:51:48.790Z,100873.09
2022-07-29T12:54:18.148Z,100875.88
2022-07-29T12:56:46.995Z,100879.97
2022-07-29T12:59:20.821Z,100872.63
2022-07-29T13:01:52.395Z,100874.16
2022-07-29T13:04:28.203Z,100869.03
2022-07-29T13:07:05.777Z,100863.94
2022-07-29T13:09:42.149Z,100865.06
2022-07-29T13:12:12.269Z,100875.13
2022-07-29T13:14:48.617Z,100877.50
2022-07-29T13:17:18.227Z,100881.63
2022-07-29T13:19:52.695Z,100870.06
2022-07-29T13:22:25.210Z,100870.59
2022-07-29T13:24:54.574Z,100873.09
2022-07-29T13:27:24.402Z,100866.00
2022-07-29T13:29:58.949Z,100863.31
2022-07-29T13:32:29.469Z,100858.50
2022-07-29T13:34:57.730Z,100865.75
2022-07-29T13:37:27.358Z,100858.38
2022-07-29T13:39:57.202Z,100854.97
2022-07-29T13:42:28.435Z,100850.34
2022-07-29T13:47:32.257Z,100845.88
2022-07-29T13:50:03.096Z,100839.00
2022-07-29T13:52:31.066Z,100849.97
2022-07-29T13:55:02.593Z,100837.88
2022-07-29T13:57:31.284Z,100846.34
2022-07-29T14:00:01.104Z,100837.97
2022-07-29T14:02:30.010Z,100851.22
2022-07-29T14:04:58.785Z,100856.59
2022-07-29T14:07:29.616Z,100846.13
2022-07-29T14:09:58.395Z,100851.22
2022-07-29T14:12:26.613Z,100843.22
2022-07-29T14:14:54.619Z,100842.91
2022-07-29T14:17:24.913Z,100838.75
2022-07-29T14:22:22.326Z,100837.09
2022-07-29T14:24:54.107Z,100836.38
2022-07-29T14:27:37.519Z,100831.25
2022-07-29T14:30:08.190Z,100837.91
2022-07-29T14:32:38.447Z,100829.97
2022-07-29T14:35:07.673Z,100827.91
2022-07-29T14:37:39.358Z,100828.09
2022-07-29T14:40:10.528Z,100824.28
2022-07-29T14:42:39.130Z,100822.03
2022-07-29T14:45:09.377Z,100822.19
2022-07-29T14:47:40.799Z,100808.91
2022-07-29T14:50:12.165Z,100815.63
2022-07-29T14:52:40.600Z,100815.63
2022-07-29T14:55:19.623Z,100804.00
2022-07-29T14:57:49.403Z,100808.72
2022-07-29T15:00:18.402Z,100805.09
2022-07-29T15:03:04.513Z,100806.38
2022-07-29T15:05:37.505Z,100801.59
2022-07-29T15:08:05.840Z,100798.38
2022-07-29T15:10:34.199Z,100791.06
2022-07-29T15:13:02.493Z,100787.19
2022-07-29T15:15:30.633Z,100789.41
2022-07-29T15:18:01.416Z,100785.88
2022-07-29T15:20:29.841Z,100773.75
2022-07-29T15:22:58.155Z,100781.00
2022-07-29T15:25:27.942Z,100774.59
2022-07-29T15:28:01.213Z,100766.94
2022-07-29T15:30:33.291Z,100770.91
2022-07-29T15:35:39.986Z,100764.69
2022-07-29T15:38:10.548Z,100766.41
2022-07-29T15:43:11.830Z,100767.38
2022-07-29T15:45:41.440Z,100766.59
2022-07-29T15:48:14.531Z,100761.81
2022-07-29T15:50:43.003Z,100763.72
2022-07-29T15:53:15.601Z,100769.94
2022-07-29T15:55:44.482Z,100771.56
2022-07-29T15:58:12.910Z,100767.38
2022-07-29T16:00:41.729Z,100768.78
2022-07-29T16:03:11.425Z,100765.28
2022-07-29T16:05:42.480Z,100765.34
2022-07-29T16:08:11.164Z,100762.44
2022-07-29T16:10:39.291Z,100752.34
2022-07-29T16:13:07.722Z,100750.72
2022-07-29T16:15:36.184Z,100752.94
2022-07-29T16:18:04.424Z,100747.00
2022-07-29T16:20:33.948Z,100748.28
2022-07-29T16:23:04.994Z,100747.34
2022-07-29T16:25:57.418Z,100757.22
2022-07-29T16:28:21.529Z,100750.19
2022-07-29T16:30:51.597Z,100750.38
2022-07-29T16:33:19.706Z,100748.91
2022-07-29T16:35:50.659Z,100749.41
2022-07-29T16:38:19.360Z,100747.19
2022-07-29T16:40:47.515Z,100759.69
2022-07-29T16:43:16.371Z,100747.03
2022-07-29T16:45:47.787Z,100756.66
2022-07-29T16:48:18.136Z,100762.09
2022-07-29T16:50:46.899Z,100757.47
2022-07-29T16:53:17.090Z,100768.00
2022-07-29T16:55:45.604Z,100770.38
2022-07-29T16:58:14.795Z,100759.72
2022-07-29T17:00:43.038Z,100759.69
2022-07-29T17:03:11.144Z,100759.06
2022-07-29T17:05:52.038Z,100749.94
2022-07-29T17:10:57.743Z,100760.97
2022-07-29T17:13:27.195Z,100763.03
2022-07-29T17:16:00.646Z,100761.28
2022-07-29T17:18:29.255Z,100760.81
2022-07-29T17:20:57.205Z,100764.91
2022-07-29T17:25:58.253Z,100773.41
2022-07-29T17:28:26.449Z,100772.41
2022-07-29T17:30:54.627Z,100767.75
2022-07-29T17:33:24.715Z,100778.03
2022-07-29T17:36:11.320Z,100769.22
2022-07-29T17:38:41.955Z,100776.56
2022-07-29T17:41:10.299Z,100776.66
2022-07-29T17:43:38.166Z,100779.13
2022-07-29T17:46:08.777Z,100778.47
2022-07-29T17:48:38.275Z,100783.66
2022-07-29T17:51:06.376Z,100774.94
2022-07-29T17:53:34.659Z,100773.41
2022-07-29T17:56:08.683Z,100771.31
2022-07-29T17:58:36.896Z,100759.69
2022-07-29T18:01:05.201Z,100767.00
2022-07-29T18:03:34.573Z,100766.84
2022-07-29T18:06:06.337Z,100762.50
2022-07-29T18:08:35.023Z,100767.34
2022-07-29T18:11:04.310Z,100767.97
2022-07-29T18:13:35.468Z,100759.69
2022-07-29T18:16:03.934Z,100761.91
2022-07-29T18:18:32.019Z,100767.63
2022-07-29T18:21:01.502Z,100764.28
2022-07-29T18:23:29.327Z,100764.63
2022-07-29T18:25:57.232Z,100772.44
2022-07-29T18:28:25.470Z,100767.28
2022-07-29T18:30:56.802Z,100768.22
2022-07-29T18:33:28.994Z,100767.75
2022-07-29T18:36:06.126Z,100766.94
2022-07-29T18:38:39.711Z,100763.56
2022-07-29T18:41:08.270Z,100764.81
2022-07-29T18:43:36.216Z,100768.25
2022-07-29T18:46:07.150Z,100762.75
2022-07-29T18:48:35.519Z,100767.50
2022-07-29T18:51:09.236Z,100765.25
2022-07-29T18:53:38.733Z,100766.44
2022-07-29T18:56:09.844Z,100769.31
2022-07-29T18:58:42.273Z,100783.00
2022-07-29T19:03:46.150Z,100779.72
2022-07-29T19:06:15.542Z,100776.84
2022-07-29T19:08:43.695Z,100789.78
2022-07-29T19:11:15.395Z,100778.16
2022-07-29T19:13:43.805Z,100788.47
2022-07-29T19:16:15.765Z,100786.81
2022-07-29T19:18:48.715Z,100791.84
2022-07-29T19:21:21.509Z,100796.09
2022-07-29T19:24:01.696Z,100798.06
2022-07-29T19:26:44.379Z,100793.44
2022-07-29T19:29:12.688Z,100799.34
2022-07-29T19:31:41.477Z,100795.63
2022-07-29T19:34:12.615Z,100797.84
2022-07-29T19:36:43.074Z,100801.16
2022-07-29T19:39:11.879Z,100802.56
2022-07-29T19:41:40.908Z,100797.19
2022-07-29T19:44:08.975Z,100789.88
2022-07-29T19:46:40.621Z,100781.19
2022-07-29T19:49:10.873Z,100786.91
2022-07-29T19:51:45.468Z,100782.94
2022-07-29T19:54:14.828Z,100783.94
2022-07-29T19:56:46.296Z,100787.78
2022-07-29T19:59:14.157Z,100784.41
2022-07-29T20:01:44.134Z,100786.88
2022-07-29T20:04:15.695Z,100783.19
2022-07-29T20:09:20.442Z,100790.22
2022-07-29T20:11:52.062Z,100792.91
2022-07-29T20:14:26.624Z,100774.78
2022-07-29T20:19:39.904Z,100784.78
2022-07-29T20:24:38.915Z,100771.97
2022-07-29T20:27:06.940Z,100780.06
2022-07-29T20:29:42.894Z,100780.34
2022-07-29T20:32:12.868Z,100770.19
2022-07-29T20:34:42.322Z,100774.50
2022-07-29T20:37:11.819Z,100770.78
2022-07-29T20:39:39.923Z,100762.44
2022-07-29T20:42:08.966Z,100765.34
2022-07-29T20:44:37.537Z,100772.84
2022-07-29T20:47:05.781Z,100768.22
2022-07-29T20:49:37.006Z,100767.66
2022-07-29T20:52:10.637Z,100770.94
2022-07-29T20:54:43.050Z,100773.72
2022-07-29T20:57:16.682Z,100765.91
2022-07-29T20:59:45.876Z,100768.88
2022-07-29T21:02:14.511Z,100775.63
2022-07-29T21:04:44.055Z,100777.50
2022-07-29T21:07:13.954Z,100776.31
2022-07-29T21:09:42.670Z,100777.16
2022-07-29T21:12:11.640Z,100778.00
2022-07-29T21:14:39.595Z,100775.34
2022-07-29T21:17:08.601Z,100776.94
2022-07-29T21:19:37.277Z,100775.59
2022-07-29T21:22:08.985Z,100778.00
2022-07-29T21:24:40.411Z,100764.84
2022-07-29T21:27:27.297Z,100775.13
2022-07-29T21:29:56.367Z,100760.06
2022-07-29T21:32:31.042Z,100759.25
2022-07-29T21:34:59.977Z,100768.16
2022-07-29T21:37:28.611Z,100769.22
2022-07-29T21:39:58.194Z,100763.03
2022-07-29T21:42:25.986Z,100765.44
2022-07-29T21:44:54.962Z,100768.13
2022-07-29T21:47:23.166Z,100758.97
2022-07-29T21:49:52.109Z,100764.91
2022-07-29T21:54:51.064Z,100760.06
2022-07-29T21:57:21.514Z,100767.06
2022-07-29T21:59:53.971Z,100770.84
2022-07-29T22:02:23.257Z,100754.72
2022-07-29T22:04:52.035Z,100762.47
2022-07-29T22:07:20.157Z,100765.69
2022-07-29T22:09:48.119Z,100763.56
2022-07-29T22:12:16.596Z,100754.41
2022-07-29T22:14:50.182Z,100765.19
2022-07-29T22:17:21.961Z,100753.63
2022-07-29T22:19:49.860Z,100759.97
2022-07-29T22:22:19.270Z,100760.25
2022-07-29T22:27:20.170Z,100758.84
2022-07-29T22:29:51.108Z,100755.34
2022-07-29T22:32:18.797Z,100742.63
2022-07-29T22:34:47.140Z,100749.03
2022-07-29T22:37:15.660Z,100743.63
2022-07-29T22:39:43.590Z,100744.94
2022-07-29T22:42:11.747Z,100743.84
2022-07-29T22:44:40.010Z,100750.94
2022-07-29T22:47:14.105Z,100741.78
2022-07-29T22:49:43.016Z,100752.69
2022-07-29T22:52:11.481Z,100749.75
2022-07-29T22:54:42.549Z,100752.69
2022-07-29T22:57:10.722Z,100764.81
2022-07-29T22:59:38.771Z,100775.66
2022-07-29T23:02:07.325Z,100779.09
2022-07-29T23:04:38.001Z,100782.13
2022-07-29T23:07:08.181Z,100784.28
2022-07-29T23:09:36.759Z,100783.31
2022-07-29T23:12:04.991Z,100781.44
2022-07-29T23:14:33.125Z,100779.50
2022-07-29T23:17:03.003Z,100777.56
2022-07-29T23:19:32.187Z,100761.41
2022-07-29T23:22:00.018Z,100767.63
2022-07-29T23:24:31.510Z,100775.00
2022-07-29T23:26:59.216Z,100778.63
2022-07-29T23:29:28.325Z,100774.03
2022-07-29T23:34:25.652Z,100773.22
2022-07-29T23:36:53.490Z,100765.69
2022-07-29T23:39:21.691Z,100760.06
2022-07-29T23:41:53.402Z,100756.81
2022-07-29T23:44:23.218Z,100759.25
2022-07-29T23:49:21.754Z,100752.03
2022-07-29T23:51:49.601Z,100753.41
2022-07-29T23:54:18.061Z,100754.41
2022-07-29T23:56:46.486Z,100743.28
2022-07-29T23:59:14.643Z,100746.34
